Time;durP1;ratioP1;P1;durP2;ratioP2;P2;SDS_P1;SDS_P2;PMS_P1;PMS_P2;Temp;Humidity;BMP_temperature;BMP_pressure;BME280_temperature;BME280_humidity;BME280_pressure;Samples;Min_cycle;Max_cycle;Signal;HPM_P1;HPM_P2
2023/05/11 00:01:49;;;;;;;72.80;23.77;;;;;;;11.12;100.00;101281.56;5018896;28;20083;-83
2023/05/11 00:04:14;;;;;;;73.40;23.47;;;;;;;11.13;100.00;101290.53;5036289;28;20041;-83
2023/05/11 00:06:42;;;;;;;68.00;23.77;;;;;;;11.09;100.00;101286.56;5002437;28;20080;-83
2023/05/11 00:09:09;;;;;;;71.07;23.85;;;;;;;11.09;100.00;101281.13;5018944;28;20037;-83
2023/05/11 00:11:35;;;;;;;70.78;22.63;;;;;;;11.12;100.00;101281.56;5002593;28;20030;-83
2023/05/11 00:14:00;;;;;;;66.13;23.47;;;;;;;11.15;100.00;101288.47;5002999;28;20091;-83
2023/05/11 00:16:26;;;;;;;70.00;24.40;;;;;;;11.17;100.00;101283.66;5018412;28;20074;-83
2023/05/11 00:18:51;;;;;;;76.03;24.47;;;;;;;11.15;100.00;101278.44;5018578;28;20041;-83
2023/05/11 00:21:17;;;;;;;76.53;24.20;;;;;;;11.12;100.00;101280.75;4985636;28;20304;-84
2023/05/11 00:23:42;;;;;;;61.10;23.47;;;;;;;11.14;100.00;101273.19;5018456;28;20465;-83
2023/05/11 00:26:08;;;;;;;69.10;24.50;;;;;;;11.12;100.00;101269.88;5018275;28;20037;-83
2023/05/11 00:28:33;;;;;;;68.38;23.17;;;;;;;11.11;100.00;101276.34;5018442;28;20048;-83
2023/05/11 00:30:58;;;;;;;62.47;23.57;;;;;;;11.05;100.00;101275.28;5019001;28;20115;-83
2023/05/11 00:33:24;;;;;;;66.23;23.83;;;;;;;11.01;100.00;101282.16;4985362;28;20405;-82
2023/05/11 00:35:50;;;;;;;69.20;24.60;;;;;;;10.98;100.00;101282.59;5018257;28;20033;-82
2023/05/11 00:38:15;;;;;;;74.73;25.13;;;;;;;10.94;100.00;101279.47;5018267;28;20028;-82
2023/05/11 00:40:41;;;;;;;77.77;26.60;;;;;;;10.90;100.00;101288.22;5002335;28;20036;-82
2023/05/11 00:43:07;;;;;;;73.63;24.75;;;;;;;10.88;100.00;101291.97;5018352;28;20068;-82
2023/05/11 00:45:33;;;;;;;73.17;26.23;;;;;;;10.85;100.00;101280.69;5002299;28;20044;-82
2023/05/11 00:47:59;;;;;;;79.47;26.25;;;;;;;10.81;100.00;101288.41;5001095;28;20030;-83
2023/05/11 00:50:25;;;;;;;76.13;26.07;;;;;;;10.80;100.00;101286.72;5001548;28;20495;-83
2023/05/11 00:52:50;;;;;;;92.28;27.52;;;;;;;10.79;100.00;101290.50;5017633;28;20568;-83
2023/05/11 00:55:21;;;;;;;79.10;27.97;;;;;;;10.77;100.00;101292.59;5017699;28;20108;-82
2023/05/11 00:57:47;;;;;;;84.45;27.42;;;;;;;10.78;100.00;101293.44;5018168;28;20056;-83
2023/05/11 01:00:13;;;;;;;89.72;29.15;;;;;;;10.79;100.00;101292.38;5017449;28;20030;-83
2023/05/11 01:02:39;;;;;;;88.35;27.90;;;;;;;10.77;100.00;101295.28;5018004;28;20092;-83
2023/05/11 01:05:07;;;;;;;92.93;28.73;;;;;;;10.79;100.00;101289.66;5001405;28;20531;-83
2023/05/11 01:07:47;;;;;;;94.78;30.08;;;;;;;10.79;100.00;101298.66;5017922;28;20109;-82
2023/05/11 01:10:31;;;;;;;94.55;28.90;;;;;;;10.79;100.00;101293.22;5035120;28;20032;-82
2023/05/11 01:13:09;;;;;;;100.43;29.33;;;;;;;10.82;100.00;101297.38;5035325;28;20037;-83
2023/05/11 01:15:51;;;;;;;91.57;29.45;;;;;;;10.82;100.00;101297.38;5017527;28;20171;-82
2023/05/11 01:18:28;;;;;;;91.67;28.47;;;;;;;10.84;100.00;101289.88;5001089;28;20124;-82
2023/05/11 01:20:59;;;;;;;101.75;29.15;;;;;;;10.82;100.00;101290.09;5017706;28;20044;-83
2023/05/11 01:23:49;;;;;;;104.03;30.08;;;;;;;10.82;100.00;101290.09;5035114;28;20025;-83
2023/05/11 01:26:34;;;;;;;94.70;28.50;;;;;;;10.80;100.00;101296.78;5017272;28;20037;-83
2023/05/11 01:29:18;;;;;;;106.85;28.80;;;;;;;10.81;100.00;101304.69;5035050;28;20025;-82
2023/05/11 01:31:47;;;;;;;96.87;29.63;;;;;;;10.81;100.00;101296.56;5034648;28;20088;-83
2023/05/11 01:34:17;;;;;;;96.75;30.23;;;;;;;10.82;100.00;101292.81;5000656;28;20039;-83
2023/05/11 01:36:50;;;;;;;100.05;29.90;;;;;;;10.82;100.00;101300.09;5017415;28;20033;-82
2023/05/11 01:39:21;;;;;;;112.50;30.83;;;;;;;10.81;100.00;101301.16;5017340;28;20477;-82
2023/05/11 01:41:52;;;;;;;99.70;31.25;;;;;;;10.79;100.00;101303.22;5017744;28;20061;-82
2023/05/11 01:44:19;;;;;;;123.73;31.77;;;;;;;10.79;100.00;101303.22;5034745;28;20029;-82
2023/05/11 01:46:46;;;;;;;122.00;31.60;;;;;;;10.76;100.00;101300.94;5016550;28;20028;-82
2023/05/11 01:49:13;;;;;;;109.35;31.88;;;;;;;10.77;100.00;101299.91;4985289;28;20061;-82
2023/05/11 01:51:41;;;;;;;115.50;33.78;;;;;;;10.78;100.00;101301.56;5034845;28;20099;-82
2023/05/11 01:54:08;;;;;;;120.85;33.80;;;;;;;10.80;100.00;101299.47;5016727;28;20049;-82
2023/05/11 01:56:35;;;;;;;111.27;33.10;;;;;;;10.79;100.00;101306.81;4984333;28;20041;-82
2023/05/11 01:59:02;;;;;;;117.75;32.90;;;;;;;10.77;100.00;101303.44;5016435;28;20491;-83
2023/05/11 02:01:28;;;;;;;122.85;34.80;;;;;;;10.77;100.00;101308.03;5016562;28;20038;-82
2023/05/11 02:03:54;;;;;;;134.65;35.15;;;;;;;10.75;100.00;101302.81;5000252;28;20033;-82
2023/05/11 02:06:22;;;;;;;111.82;34.08;;;;;;;10.75;100.00;101305.53;5034310;28;20533;-82
2023/05/11 02:08:49;;;;;;;127.30;34.70;;;;;;;10.76;100.00;101309.06;5017394;28;20037;-83
2023/05/11 02:11:15;;;;;;;123.20;34.92;;;;;;;10.71;100.00;101298.84;5000063;28;20026;-82
2023/05/11 02:13:43;;;;;;;145.00;36.17;;;;;;;10.71;100.00;101299.66;5016331;28;20032;-83
2023/05/11 02:16:11;;;;;;;135.23;35.15;;;;;;;10.68;100.00;101296.53;5016311;28;20128;-82
2023/05/11 02:18:39;;;;;;;144.35;35.70;;;;;;;10.69;100.00;101292.78;5016797;28;20132;-82
2023/05/11 02:21:07;;;;;;;129.03;35.20;;;;;;;10.70;100.00;101289.88;5034364;28;20099;-82
2023/05/11 02:23:33;;;;;;;131.40;35.72;;;;;;;10.69;100.00;101281.94;5016548;28;20044;-82
2023/05/11 02:26:00;;;;;;;159.45;38.88;;;;;;;10.69;100.00;101290.91;5000375;28;20469;-82
2023/05/11 02:28:25;;;;;;;137.40;37.38;;;;;;;10.69;100.00;101287.34;4999883;28;20531;-83
2023/05/11 02:31:00;;;;;;;164.37;38.87;;;;;;;10.67;100.00;101290.28;4999837;28;20037;-82
2023/05/11 02:33:35;;;;;;;151.20;38.67;;;;;;;10.64;100.00;101287.13;5016327;28;20083;-83
2023/05/11 02:36:02;;;;;;;142.27;39.05;;;;;;;10.64;100.00;101285.22;5033861;28;20159;-83
2023/05/11 02:38:34;;;;;;;151.60;39.30;;;;;;;10.65;100.00;101291.53;5016102;28;20044;-83
2023/05/11 02:41:05;;;;;;;158.63;39.47;;;;;;;10.65;100.00;101283.38;4983654;28;20036;-83
2023/05/11 02:43:34;;;;;;;159.45;39.78;;;;;;;10.63;100.00;101290.88;5016326;28;20033;-83
2023/05/11 02:46:07;;;;;;;152.80;38.78;;;;;;;10.63;100.00;101294.44;5033672;28;20029;-83
2023/05/11 02:48:44;;;;;;;180.82;39.88;;;;;;;10.63;100.00;101290.88;5034279;28;20038;-83
2023/05/11 02:51:13;;;;;;;170.27;38.65;;;;;;;10.62;100.00;101290.03;5016316;28;20484;-83
2023/05/11 02:53:42;;;;;;;154.80;39.37;;;;;;;10.62;100.00;101286.50;5015496;28;20045;-83
2023/05/11 02:56:07;;;;;;;145.95;38.58;;;;;;;10.60;100.00;101289.44;5033623;28;20033;-83
2023/05/11 02:58:33;;;;;;;161.30;40.65;;;;;;;10.58;100.00;101291.50;4999803;28;20354;-83
2023/05/11 03:01:05;;;;;;;164.30;40.43;;;;;;;10.55;100.00;101289.19;5033273;28;20029;-83
2023/05/11 03:03:31;;;;;;;159.65;40.50;;;;;;;10.51;100.00;101293.34;5016125;28;20458;-83
2023/05/11 03:05:56;;;;;;;151.38;40.65;;;;;;;10.47;100.00;101294.81;5033215;28;20036;-83
2023/05/11 03:08:21;;;;;;;187.73;40.50;;;;;;;10.41;100.00;101293.75;4999463;28;20033;-82
2023/05/11 03:10:47;;;;;;;181.40;40.93;;;;;;;10.37;100.00;101297.91;5035908;28;20036;-83
2023/05/11 03:13:15;;;;;;;151.63;39.58;;;;;;;10.32;100.00;101294.94;5003702;28;20485;-83
2023/05/11 03:15:41;;;;;;;166.35;39.40;;;;;;;10.29;100.00;101300.75;5019638;28;20029;-83
2023/05/11 03:18:08;;;;;;;173.30;40.23;;;;;;;10.24;100.00;101304.06;5003708;28;20539;-83
2023/05/11 03:20:36;;;;;;;156.45;38.08;;;;;;;10.19;100.00;101304.69;5019633;28;20381;-83
2023/05/11 03:23:04;;;;;;;159.68;41.28;;;;;;;10.16;100.00;101302.38;5019537;28;20025;-83
2023/05/11 03:25:30;;;;;;;164.25;41.35;;;;;;;10.15;100.00;101300.69;5037542;28;20029;-82
2023/05/11 03:27:57;;;;;;;182.15;41.15;;;;;;;10.15;100.00;101305.28;5019709;28;20381;-83
2023/05/11 03:30:25;;;;;;;174.17;41.40;;;;;;;10.15;100.00;101308.00;5019424;28;20033;-83
2023/05/11 03:32:51;;;;;;;211.57;42.90;;;;;;;10.16;100.00;101304.25;5019429;28;20033;-83
2023/05/11 03:35:17;;;;;;;182.20;41.85;;;;;;;10.16;100.00;101304.25;5003143;28;20026;-83
2023/05/11 03:37:44;;;;;;;195.70;40.65;;;;;;;10.15;100.00;101303.41;5019258;28;20039;-82
2023/05/11 03:40:13;;;;;;;162.00;39.93;;;;;;;10.17;100.00;101311.34;5019557;28;20454;-83
2023/05/11 03:42:41;;;;;;;192.65;41.47;;;;;;;10.16;100.00;101304.25;5019205;28;20025;-83
2023/05/11 03:45:08;;;;;;;175.75;40.50;;;;;;;10.16;100.00;101302.38;5036596;28;20461;-83
2023/05/11 03:47:37;;;;;;;204.40;41.97;;;;;;;10.16;100.00;101299.66;5019159;28;20040;-83
2023/05/11 03:50:04;;;;;;;208.13;41.50;;;;;;;10.15;100.00;101295.25;5003123;28;20125;-83
2023/05/11 03:52:30;;;;;;;203.33;41.73;;;;;;;10.16;100.00;101296.94;5018815;28;20065;-83
2023/05/11 03:54:56;;;;;;;192.57;41.58;;;;;;;10.15;100.00;101294.44;5002634;28;20054;-82
2023/05/11 03:57:24;;;;;;;185.73;41.90;;;;;;;10.18;100.00;101302.16;5002578;28;20086;-83
2023/05/11 03:59:50;;;;;;;200.70;41.67;;;;;;;10.18;100.00;101299.47;5037206;28;20469;-83
2023/05/11 04:02:15;;;;;;;194.60;41.27;;;;;;;10.20;100.00;101302.78;5018834;28;20078;-83
2023/05/11 04:04:41;;;;;;;198.55;44.78;;;;;;;10.18;100.00;101297.56;5036579;28;20497;-83
2023/05/11 04:07:06;;;;;;;187.50;43.30;;;;;;;10.22;100.00;101299.91;5003258;28;20045;-82
2023/05/11 04:09:32;;;;;;;178.77;43.27;;;;;;;10.22;100.00;101299.91;5002769;28;20037;-82
2023/05/11 04:11:57;;;;;;;221.97;46.00;;;;;;;10.23;100.00;101298.84;5002646;28;20037;-82
2023/05/11 04:14:23;;;;;;;226.55;44.60;;;;;;;10.25;100.00;101299.50;5036737;28;20069;-82
2023/05/11 04:16:48;;;;;;;223.13;46.40;;;;;;;10.24;100.00;101297.81;5018432;28;20030;-83
2023/05/11 04:19:15;;;;;;;205.77;44.67;;;;;;;10.25;100.00;101299.50;5018326;28;20033;-82
2023/05/11 04:21:40;;;;;;;238.60;46.35;;;;;;;10.24;100.00;101295.09;5036488;28;20109;-82
2023/05/11 04:24:06;;;;;;;217.23;47.97;;;;;;;10.24;100.00;101295.09;5036769;28;20037;-82
2023/05/11 04:26:31;;;;;;;199.10;48.17;;;;;;;10.23;100.00;101301.56;5002612;28;20036;-82
2023/05/11 04:28:57;;;;;;;223.40;47.03;;;;;;;10.23;100.00;101299.69;5002040;28;20450;-83
2023/05/11 04:31:22;;;;;;;224.33;47.27;;;;;;;10.23;100.00;101297.00;5002261;28;20440;-82
2023/05/11 04:33:48;;;;;;;207.77;47.40;;;;;;;10.29;100.00;101308.88;5001881;28;20029;-82
2023/05/11 04:36:13;;;;;;;219.27;48.55;;;;;;;10.32;100.00;101294.94;4985686;28;20531;-82
2023/05/11 04:38:39;;;;;;;232.23;49.40;;;;;;;10.33;100.00;101304.72;5035857;28;20465;-82
2023/05/11 04:41:05;;;;;;;228.57;48.03;;;;;;;10.33;100.00;101305.63;5001418;28;20128;-82
2023/05/11 04:43:30;;;;;;;219.45;50.22;;;;;;;10.34;100.00;101301.84;5001741;28;20030;-83
2023/05/11 04:45:56;;;;;;;208.13;48.50;;;;;;;10.43;100.00;101305.22;5017587;28;20400;-82
2023/05/11 04:48:21;;;;;;;236.70;50.07;;;;;;;10.41;100.00;101301.88;5018049;28;20029;-82
2023/05/11 04:50:47;;;;;;;228.32;47.83;;;;;;;10.39;100.00;101311.25;5001626;28;20037;-83
2023/05/11 04:53:12;;;;;;;226.13;46.90;;;;;;;10.36;100.00;101320.63;5017761;28;20057;-83
2023/05/11 04:55:38;;;;;;;208.67;48.30;;;;;;;10.39;100.00;101322.94;5017694;28;20603;-82
2023/05/11 04:58:04;;;;;;;215.20;48.53;;;;;;;10.50;100.00;101313.41;5001504;28;20319;-83
2023/05/11 05:00:29;;;;;;;218.33;47.47;;;;;;;10.59;100.00;101322.19;5017744;28;20412;-82
2023/05/11 05:02:54;;;;;;;249.90;48.90;;;;;;;10.60;100.00;101323.84;5017805;28;20033;-83
2023/05/11 05:05:20;;;;;;;212.55;49.95;;;;;;;10.63;100.00;101321.56;5017985;28;20133;-82
2023/05/11 05:07:45;;;;;;;207.77;47.53;;;;;;;10.64;100.00;101325.13;5018091;28;20061;-83
2023/05/11 05:10:11;;;;;;;199.63;48.37;;;;;;;10.69;100.00;101322.63;5000928;28;20036;-83
2023/05/11 05:12:40;;;;;;;201.40;46.60;;;;;;;10.72;100.00;101335.81;5035245;28;20120;-83
2023/05/11 05:15:06;;;;;;;200.45;45.08;;;;;;;10.73;100.00;101329.31;5016796;28;20366;-83
2023/05/11 05:17:31;;;;;;;198.40;46.23;;;;;;;10.77;100.00;101327.03;5000935;28;20044;-83
2023/05/11 05:19:57;;;;;;;200.82;48.88;;;;;;;10.90;100.00;101340.63;5017527;28;20034;-82
2023/05/11 05:22:24;;;;;;;198.17;46.87;;;;;;;10.96;100.00;101350.66;4985420;28;20033;-82
2023/05/11 05:24:49;;;;;;;206.45;49.15;;;;;;;11.02;100.00;101340.88;5034672;28;20127;-83
2023/05/11 05:27:14;;;;;;;189.87;47.83;;;;;;;11.02;100.00;101344.41;5017635;28;20112;-84
2023/05/11 05:29:40;;;;;;;194.90;47.90;;;;;;;11.08;100.00;101344.66;5034892;28;20625;-82
2023/05/11 05:32:05;;;;;;;203.33;48.20;;;;;;;11.18;100.00;101348.63;5016755;28;20451;-83
2023/05/11 05:34:31;;;;;;;182.93;47.27;;;;;;;11.11;100.00;101350.47;5034580;28;20026;-83
2023/05/11 05:36:56;;;;;;;184.63;46.53;;;;;;;11.06;100.00;101350.28;5034420;28;20484;-83
2023/05/11 05:39:22;;;;;;;181.43;47.90;;;;;;;11.06;100.00;101353.81;5000918;28;20132;-83
2023/05/11 05:41:47;;;;;;;171.97;46.87;;;;;;;11.06;100.00;101353.81;5016663;28;20029;-83
2023/05/11 05:44:12;;;;;;;191.20;46.97;;;;;;;11.11;100.00;101346.94;5016819;28;20124;-82
2023/05/11 05:46:38;;;;;;;172.27;46.53;;;;;;;11.13;100.00;101350.28;5000167;28;20026;-82
2023/05/11 05:49:03;;;;;;;179.80;47.63;;;;;;;11.15;100.00;101351.75;5017173;28;20369;-82
2023/05/11 05:51:30;;;;;;;177.37;48.10;;;;;;;11.19;100.00;101352.16;5000589;28;20401;-83
2023/05/11 05:53:55;;;;;;;167.90;45.60;;;;;;;11.13;100.00;101355.72;4996882;28;20108;-82
2023/05/11 05:56:21;;;;;;;174.20;47.93;;;;;;;11.03;100.00;101358.84;5014537;28;20042;-83
2023/05/11 05:58:47;;;;;;;168.93;47.47;;;;;;;11.11;100.00;101363.25;5014116;28;20029;-84
2023/05/11 06:01:15;;;;;;;179.30;47.83;;;;;;;11.09;100.00;101359.88;4996970;28;20101;-85
2023/05/11 06:03:41;;;;;;;176.18;47.33;;;;;;;11.19;100.00;101366.59;4997176;28;20034;-84
2023/05/11 06:06:06;;;;;;;182.37;47.80;;;;;;;11.28;100.00;101363.66;4996647;28;20068;-84
2023/05/11 06:08:32;;;;;;;190.40;50.57;;;;;;;11.45;100.00;101361.38;5013011;28;20406;-84
2023/05/11 06:10:58;;;;;;;201.30;53.05;;;;;;;11.52;100.00;101365.78;4996658;28;20030;-85
2023/05/11 06:13:23;;;;;;;189.40;52.33;;;;;;;11.56;100.00;101375.19;5012833;28;20033;-85
2023/05/11 06:15:49;;;;;;;187.97;50.40;;;;;;;11.45;100.00;101369.53;4996428;28;20658;-85
2023/05/11 06:18:14;;;;;;;184.07;48.40;;;;;;;11.48;100.00;101369.13;5012616;28;20072;-85
2023/05/11 06:20:42;;;;;;;171.40;48.23;;;;;;;11.58;100.00;101369.53;5012323;28;20034;-85
2023/05/11 06:23:10;;;;;;;161.93;50.35;;;;;;;11.58;100.00;101377.69;4996661;28;20049;-85
2023/05/11 06:25:36;;;;;;;173.82;48.65;;;;;;;11.47;100.00;101373.72;5012617;28;20026;-85
2023/05/11 06:28:01;;;;;;;163.03;45.90;;;;;;;11.56;100.00;101368.94;5013109;28;20061;-85
2023/05/11 06:30:27;;;;;;;160.45;48.97;;;;;;;11.66;100.00;101376.63;4995857;28;20470;-85
2023/05/11 06:32:53;;;;;;;151.17;46.70;;;;;;;11.73;100.00;101375.59;4980212;28;20441;-85
2023/05/11 06:35:21;;;;;;;165.70;49.77;;;;;;;11.81;100.00;101379.13;5012239;28;20394;-85
2023/05/11 06:37:46;;;;;;;156.77;46.43;;;;;;;11.68;100.00;101375.41;5014046;28;20277;-84
2023/05/11 06:40:14;;;;;;;143.40;45.83;;;;;;;11.70;100.00;101378.72;5013981;28;20502;-85
2023/05/11 06:42:43;;;;;;;138.57;44.03;;;;;;;11.63;100.00;101383.31;5013980;28;20037;-84
2023/05/11 06:45:09;;;;;;;129.32;44.67;;;;;;;11.67;100.00;101378.31;5013106;28;20030;-84
2023/05/11 06:47:34;;;;;;;135.60;45.38;;;;;;;11.68;100.00;101390.88;5012343;28;20025;-85
2023/05/11 06:50:00;;;;;;;120.83;43.63;;;;;;;11.55;100.00;101378.13;5013584;28;20072;-85
2023/05/11 06:52:25;;;;;;;120.03;43.20;;;;;;;11.55;100.00;101389.00;5012123;28;20022;-85
2023/05/11 06:54:51;;;;;;;112.80;42.27;;;;;;;11.47;100.00;101390.03;4991702;28;20046;-84
2023/05/11 06:57:19;;;;;;;111.63;42.47;;;;;;;11.53;100.00;101391.06;5012587;28;20038;-85
2023/05/11 06:59:44;;;;;;;112.00;42.65;;;;;;;11.53;100.00;101399.22;4996703;28;20034;-85
2023/05/11 07:02:10;;;;;;;114.50;42.20;;;;;;;11.47;100.00;101394.63;4996087;28;20045;-85
2023/05/11 07:04:36;;;;;;;114.43;42.83;;;;;;;11.47;100.00;101397.34;5012529;28;20034;-85
2023/05/11 07:07:02;;;;;;;131.18;45.78;;;;;;;11.44;100.00;101395.88;4996090;28;20033;-84
2023/05/11 07:09:27;;;;;;;133.50;44.55;;;;;;;11.57;100.00;101395.91;4996087;28;20116;-85
2023/05/11 07:11:53;;;;;;;155.10;48.10;;;;;;;11.62;100.00;101397.97;4996013;28;20129;-85
2023/05/11 07:14:18;;;;;;;143.97;48.00;;;;;;;11.66;100.00;101395.66;4979630;28;20033;-84
2023/05/11 07:16:45;;;;;;;148.65;48.42;;;;;;;11.67;100.00;101408.22;4996959;28;20478;-85
2023/05/11 07:19:10;;;;;;;144.77;47.92;;;;;;;11.60;100.00;101400.06;5013337;28;20038;-85
2023/05/11 07:21:36;;;;;;;140.10;47.40;;;;;;;11.57;100.00;101403.19;5013572;28;20528;-84
2023/05/11 07:24:04;;;;;;;144.40;47.97;;;;;;;11.48;100.00;101401.72;5011893;28;20389;-85
2023/05/11 07:26:29;;;;;;;136.25;48.55;;;;;;;11.48;100.00;101399.00;4995131;28;20494;-85
2023/05/11 07:28:55;;;;;;;138.20;46.77;;;;;;;11.50;100.00;101407.78;4979842;28;20037;-85
2023/05/11 07:31:20;;;;;;;143.68;46.58;;;;;;;11.58;100.00;101404.88;5012141;28;20034;-85
2023/05/11 07:33:46;;;;;;;141.43;47.03;;;;;;;11.55;100.00;101403.41;4996068;28;20489;-84
2023/05/11 07:36:11;;;;;;;132.33;47.53;;;;;;;11.61;100.00;101400.91;5012292;28;20045;-84
2023/05/11 07:38:39;;;;;;;140.95;45.95;;;;;;;11.73;100.00;101410.09;5012363;28;20374;-85
2023/05/11 07:41:06;;;;;;;133.27;45.13;;;;;;;11.85;100.00;101402.97;4996622;28;20037;-85
2023/05/11 07:43:34;;;;;;;138.57;47.13;;;;;;;11.83;100.00;101406.97;5012893;28;20076;-84
2023/05/11 07:46:00;;;;;;;127.97;45.15;;;;;;;11.97;100.00;101407.81;5012176;28;20081;-85
2023/05/11 07:48:25;;;;;;;126.90;44.07;;;;;;;12.00;100.00;101421.00;5011978;28;20041;-84
2023/05/11 07:50:51;;;;;;;127.85;44.22;;;;;;;12.06;100.00;101410.13;5012075;28;20034;-85
2023/05/11 07:53:18;;;;;;;129.27;46.33;;;;;;;12.10;100.00;101414.06;5014464;28;20030;-85
2023/05/11 07:55:44;;;;;;;125.63;43.90;;;;;;;12.10;100.00;101413.22;5016760;28;20121;-85
2023/05/11 07:58:09;;;;;;;132.07;45.40;;;;;;;12.07;100.00;101411.75;5018866;28;20083;-85
2023/05/11 08:00:34;;;;;;;127.37;45.50;;;;;;;12.27;100.00;101413.63;5002665;28;20131;-85
2023/05/11 08:03:00;;;;;;;119.83;42.97;;;;;;;12.38;100.00;101423.84;4986560;28;20045;-85
2023/05/11 08:05:26;;;;;;;118.70;44.47;;;;;;;12.31;100.00;101423.03;5018336;28;20029;-85
2023/05/11 08:07:51;;;;;;;111.70;43.67;;;;;;;12.22;100.00;101425.16;5002430;28;20029;-85
2023/05/11 08:10:17;;;;;;;106.88;41.38;;;;;;;12.10;100.00;101421.41;5002235;28;20120;-85
2023/05/11 08:12:42;;;;;;;113.50;42.43;;;;;;;12.00;100.00;101430.00;5018471;28;20116;-85
2023/05/11 08:15:10;;;;;;;114.93;41.87;;;;;;;12.00;100.00;101431.88;5002320;28;20125;-85
2023/05/11 08:17:36;;;;;;;114.20;42.47;;;;;;;11.95;100.00;101437.13;5018813;28;20037;-85
2023/05/11 08:20:05;;;;;;;121.93;43.57;;;;;;;12.00;100.00;101437.31;5002096;28;20041;-85
2023/05/11 08:22:31;;;;;;;116.40;43.35;;;;;;;12.07;100.00;101436.25;5002241;28;20074;-85
2023/05/11 08:24:56;;;;;;;113.40;44.43;;;;;;;11.99;100.00;101433.75;5001953;28;20451;-85
2023/05/11 08:27:21;;;;;;;118.77;43.73;;;;;;;12.08;100.00;101431.66;5036122;28;20029;-85
2023/05/11 08:29:47;;;;;;;112.65;43.70;;;;;;;12.08;100.00;101429.75;5001568;28;20125;-85
2023/05/11 08:32:12;;;;;;;116.53;44.70;;;;;;;12.14;100.00;101430.00;5001786;28;20392;-85
2023/05/11 08:34:38;;;;;;;131.70;46.70;;;;;;;12.31;100.00;101427.63;5002099;28;20079;-84
2023/05/11 08:37:05;;;;;;;117.78;45.58;;;;;;;12.45;100.00;101423.84;5001605;28;20044;-85
2023/05/11 08:39:34;;;;;;;111.93;44.00;;;;;;;12.57;100.00;101424.84;5002657;28;20037;-85
2023/05/11 08:42:01;;;;;;;107.50;41.78;;;;;;;12.59;100.00;101419.19;5001428;28;20469;-85
2023/05/11 08:44:28;;;;;;;110.07;45.50;;;;;;;12.54;100.00;101422.53;5018075;28;20037;-84
2023/05/11 08:46:59;;;;;;;104.15;43.20;;;;;;;12.58;100.00;101428.41;5017952;28;20030;-85
2023/05/11 08:49:26;;;;;;;103.53;43.85;;;;;;;12.62;100.00;101427.75;5035693;28;20033;-85
2023/05/11 08:51:51;;;;;;;109.67;42.83;;;;;;;12.90;100.00;101431.19;5017987;28;20462;-86
2023/05/11 08:54:17;;;;;;;112.20;44.55;;;;;;;13.05;100.00;101429.03;5001189;28;20052;-85
2023/05/11 08:56:50;;;;;;;110.83;43.17;;;;;;;12.81;100.00;101425.16;4985030;28;20041;-84
2023/05/11 08:59:17;;;;;;;107.43;43.05;;;;;;;12.75;100.00;101423.31;5035642;28;20481;-87
2023/05/11 09:01:44;;;;;;;107.18;44.05;;;;;;;12.85;100.00;101431.84;5001910;28;20483;-86
2023/05/11 09:04:11;;;;;;;110.80;45.07;;;;;;;12.97;100.00;101437.47;5017642;28;20480;-85
2023/05/11 09:06:37;;;;;;;113.45;48.05;;;;;;;13.08;100.00;101441.38;5018221;28;20057;-85
2023/05/11 09:09:05;;;;;;;103.18;45.92;;;;;;;13.19;100.00;101435.25;5016443;28;20397;-85
2023/05/11 09:11:31;;;;;;;111.25;45.22;;;;;;;13.40;100.00;101436.00;5035297;28;20033;-85
2023/05/11 09:13:56;;;;;;;100.17;41.20;;;;;;;13.54;100.00;101434.84;5000938;28;20036;-85
2023/05/11 09:16:22;;;;;;;108.60;44.75;;;;;;;13.53;100.00;101444.06;5035210;28;20075;-85
2023/05/11 09:18:52;;;;;;;101.10;44.20;;;;;;;13.60;100.00;101436.69;5035703;28;20377;-86
2023/05/11 09:21:23;;;;;;;103.15;44.40;;;;;;;13.67;100.00;101440.19;5001224;28;20480;-85
2023/05/11 09:23:49;;;;;;;99.45;43.03;;;;;;;13.81;100.00;101435.47;5035076;28;20473;-85
2023/05/11 09:26:25;;;;;;;100.03;45.40;;;;;;;13.84;100.00;101435.00;5017415;28;20068;-86
2023/05/11 09:28:56;;;;;;;99.65;41.65;;;;;;;13.90;100.00;101441.47;5017193;28;20055;-85
2023/05/11 09:31:40;;;;;;;90.88;40.47;;;;;;;14.03;100.00;101441.34;5035481;28;20025;-85
2023/05/11 09:34:12;;;;;;;91.38;40.35;;;;;;;13.92;100.00;101444.84;5017023;28;20044;-85
2023/05/11 09:36:55;;;;;;;96.90;41.35;;;;;;;13.93;100.00;101437.47;5034780;28;20069;-85
2023/05/11 09:39:33;;;;;;;100.20;43.00;;;;;;;13.93;100.00;101443.75;5017753;28;20025;-85
2023/05/11 09:42:19;;;;;;;94.05;42.42;;;;;;;13.94;100.00;101442.72;5016692;28;20045;-85
2023/05/11 09:44:47;;;;;;;97.03;41.85;;;;;;;14.08;100.00;101434.41;5016926;28;20083;-86
2023/05/11 09:47:21;;;;;;;96.00;43.38;;;;;;;14.17;100.00;101436.63;5016905;28;20074;-86
2023/05/11 09:49:47;;;;;;;91.82;41.88;;;;;;;14.03;100.00;101440.53;5017161;28;20074;-85
2023/05/11 09:52:17;;;;;;;91.20;40.53;;;;;;;13.80;100.00;101444.72;5016727;28;20033;-86
2023/05/11 09:54:44;;;;;;;92.72;40.92;;;;;;;13.53;100.00;101441.34;5016178;28;20084;-85
2023/05/11 09:57:26;;;;;;;93.32;42.22;;;;;;;13.47;100.00;101442.22;5016626;28;20073;-85
2023/05/11 09:59:52;;;;;;;93.80;41.08;;;;;;;13.62;100.00;101445.47;5016423;28;20132;-85
2023/05/11 10:02:22;;;;;;;89.55;40.65;;;;;;;13.80;100.00;101442.00;5034570;28;20063;-85
2023/05/11 10:04:53;;;;;;;96.20;41.93;;;;;;;13.90;100.00;101444.19;5016236;28;20029;-86
2023/05/11 10:07:33;;;;;;;93.38;40.83;;;;;;;13.95;100.00;101441.66;5016169;28;20041;-85
2023/05/11 10:10:06;;;;;;;92.82;40.42;;;;;;;14.18;100.00;101438.28;5033938;28;20033;-85
2023/05/11 10:12:41;;;;;;;85.13;40.75;;;;;;;14.30;100.00;101443.81;5016974;28;20044;-85
2023/05/11 10:15:09;;;;;;;87.35;38.97;;;;;;;14.32;100.00;101443.59;5017204;28;20116;-85
2023/05/11 10:17:35;;;;;;;79.47;38.30;;;;;;;14.64;100.00;101440.75;5034226;28;20141;-86
2023/05/11 10:20:03;;;;;;;80.80;36.00;;;;;;;15.19;100.00;101442.56;4999830;28;20061;-85
2023/05/11 10:22:29;;;;;;;76.13;36.53;;;;;;;15.39;100.00;101445.03;5016963;28;20036;-85
2023/05/11 10:24:56;;;;;;;73.97;34.35;;;;;;;15.57;100.00;101444.94;4999678;28;20037;-85
2023/05/11 10:27:22;;;;;;;72.97;33.38;;;;;;;15.56;100.00;101450.66;5016129;28;20040;-85
2023/05/11 10:29:51;;;;;;;79.27;35.73;;;;;;;15.38;100.00;101452.41;5034438;28;20026;-86
2023/05/11 10:32:17;;;;;;;72.15;34.67;;;;;;;15.06;100.00;101446.34;5016411;28;20041;-84
2023/05/11 10:34:49;;;;;;;81.90;35.58;;;;;;;14.97;100.00;101439.50;5015577;28;20064;-84
2023/05/11 10:37:15;;;;;;;76.78;37.28;;;;;;;14.86;100.00;101441.13;5000718;28;20038;-84
2023/05/11 10:39:42;;;;;;;78.43;36.55;;;;;;;14.84;100.00;101440.53;5033815;28;20031;-84
2023/05/11 10:42:45;;;;;;;85.17;40.03;;;;;;;14.97;100.00;101444.97;5015952;28;20088;-84
2023/05/11 10:45:35;;;;;;;84.95;39.25;;;;;;;14.96;100.00;101443.34;5015819;28;20040;-84
2023/05/11 10:48:01;;;;;;;81.15;37.05;;;;;;;15.23;100.00;101443.78;5016060;28;20021;-86
2023/05/11 10:50:56;;;;;;;81.90;38.05;;;;;;;15.49;100.00;101436.28;5015753;28;20041;-85
2023/05/11 10:53:49;;;;;;;86.70;39.42;;;;;;;15.68;100.00;101437.84;5032913;28;20508;-84
2023/05/11 10:56:41;;;;;;;82.60;37.87;;;;;;;15.69;100.00;101444.16;5015915;28;20128;-84
2023/05/11 10:59:25;;;;;;;79.90;36.67;;;;;;;15.87;100.00;101435.03;5015858;28;20470;-85
2023/05/11 11:01:53;;;;;;;79.45;36.78;;;;;;;16.07;100.00;101430.06;5033246;28;20477;-84